createdAt,value
2019-04-03T00:01:12.861Z,4.30
2019-04-03T00:03:42.739Z,4.60
2019-04-03T00:06:13.782Z,4.47
2019-04-03T00:08:43.722Z,4.47
2019-04-03T00:11:13.629Z,4.30
2019-04-03T00:13:43.550Z,3.97
2019-04-03T00:16:15.347Z,4.03
2019-04-03T00:18:46.875Z,4.30
2019-04-03T00:21:17.760Z,4.23
2019-04-03T00:23:48.636Z,3.53
2019-04-03T00:26:22.602Z,4.00
2019-04-03T00:28:53.694Z,4.63
2019-04-03T00:31:23.829Z,4.47
2019-04-03T00:33:55.066Z,4.43
2019-04-03T00:36:24.971Z,4.30
2019-04-03T00:38:54.932Z,3.93
2019-04-03T00:41:25.150Z,3.70
2019-04-03T00:43:55.484Z,4.43
2019-04-03T00:46:25.566Z,3.50
2019-04-03T00:48:56.197Z,4.30
2019-04-03T00:51:27.440Z,4.27
2019-04-03T00:53:58.174Z,3.60
2019-04-03T00:56:28.064Z,4.27
2019-04-03T00:58:57.980Z,4.10
2019-04-03T01:01:28.220Z,3.90
2019-04-03T01:03:58.860Z,4.00
2019-04-03T01:06:30.181Z,4.00
2019-04-03T01:09:00.132Z,4.10
2019-04-03T01:11:31.757Z,4.20
2019-04-03T01:14:02.269Z,4.47
2019-04-03T01:16:33.664Z,4.47
2019-04-03T01:19:05.176Z,3.87
2019-04-03T01:21:37.244Z,4.50
2019-04-03T01:24:08.353Z,5.07
2019-04-03T01:26:40.171Z,4.50
2019-04-03T01:29:10.626Z,4.70
2019-04-03T01:31:42.699Z,4.60
2019-04-03T01:34:12.841Z,4.00
2019-04-03T01:36:42.772Z,4.20
2019-04-03T01:39:12.659Z,4.20
2019-04-03T01:41:42.431Z,4.40
2019-04-03T01:44:12.370Z,4.43
2019-04-03T01:46:42.263Z,4.43
2019-04-03T01:49:12.118Z,4.77
2019-04-03T01:51:41.991Z,4.80
2019-04-03T01:54:11.886Z,4.50
2019-04-03T01:56:41.741Z,4.67
2019-04-03T01:59:11.573Z,4.87
2019-04-03T02:01:41.474Z,4.77
2019-04-03T02:04:13.032Z,4.87
2019-04-03T02:06:43.620Z,4.87
2019-04-03T02:09:16.212Z,5.30
2019-04-03T02:11:45.897Z,4.83
2019-04-03T02:14:15.966Z,5.33
2019-04-03T02:16:45.956Z,5.30
2019-04-03T02:19:16.073Z,5.13
2019-04-03T02:21:45.918Z,4.83
2019-04-03T02:24:15.882Z,5.20
2019-04-03T02:26:45.734Z,5.30
2019-04-03T02:29:15.919Z,4.60
2019-04-03T02:31:45.882Z,5.07
2019-04-03T02:34:15.612Z,5.10
2019-04-03T02:36:45.689Z,5.07
2019-04-03T02:39:16.103Z,5.37
2019-04-03T02:41:46.350Z,5.53
2019-04-03T02:44:19.099Z,4.90
2019-04-03T02:46:48.009Z,5.20
2019-04-03T02:49:18.012Z,5.37
2019-04-03T02:51:51.590Z,5.30
2019-04-03T02:54:30.117Z,5.10
2019-04-03T02:57:00.368Z,4.73
2019-04-03T02:59:30.315Z,4.93
2019-04-03T03:02:00.386Z,5.17
2019-04-03T03:04:30.504Z,4.97
2019-04-03T03:07:03.963Z,5.20
2019-04-03T03:09:32.902Z,5.40
2019-04-03T03:12:03.603Z,5.00
2019-04-03T03:14:33.677Z,4.60
2019-04-03T03:17:04.433Z,5.23
2019-04-03T03:19:37.148Z,5.57
2019-04-03T03:22:07.651Z,5.90
2019-04-03T03:24:37.543Z,5.17
2019-04-03T03:27:09.472Z,5.90
2019-04-03T03:29:39.606Z,5.50
2019-04-03T03:32:17.741Z,5.07
2019-04-03T03:34:55.767Z,5.33
2019-04-03T03:37:14.685Z,5.20
2019-04-03T03:39:44.816Z,5.30
2019-04-03T03:42:14.840Z,5.13
2019-04-03T03:44:46.300Z,5.77
2019-04-03T03:47:18.264Z,5.20
2019-04-03T03:49:50.877Z,5.40
2019-04-03T03:52:21.202Z,5.47
2019-04-03T03:54:52.410Z,4.80
2019-04-03T03:57:22.872Z,5.40
2019-04-03T03:59:53.056Z,5.07
2019-04-03T04:02:23.647Z,5.17
2019-04-03T04:04:53.653Z,5.50
2019-04-03T04:07:23.657Z,5.83
2019-04-03T04:09:54.114Z,5.37
2019-04-03T04:12:25.314Z,5.87
2019-04-03T04:14:56.606Z,6.13
2019-04-03T04:17:26.840Z,6.33
2019-04-03T04:19:57.694Z,6.43
2019-04-03T04:22:28.218Z,6.27
2019-04-03T04:24:59.828Z,6.33
2019-04-03T04:27:33.112Z,5.93
2019-04-03T04:30:01.767Z,6.03
2019-04-03T04:32:31.798Z,5.73
2019-04-03T04:35:01.592Z,6.43
2019-04-03T04:37:31.425Z,6.17
2019-04-03T04:40:01.294Z,6.67
2019-04-03T04:42:31.397Z,6.43
2019-04-03T04:45:02.041Z,6.20
2019-04-03T04:47:32.111Z,6.53
2019-04-03T04:50:02.191Z,7.00
2019-04-03T04:52:32.193Z,7.00
2019-04-03T04:55:02.918Z,6.33
2019-04-03T04:57:32.868Z,6.13
2019-04-03T05:00:03.466Z,6.60
2019-04-03T05:02:33.609Z,7.23
2019-04-03T05:05:03.470Z,6.57
2019-04-03T05:07:33.550Z,6.57
2019-04-03T05:10:03.958Z,6.87
2019-04-03T05:12:35.466Z,6.77
2019-04-03T05:15:05.566Z,6.60
2019-04-03T05:17:35.588Z,6.90
2019-04-03T05:20:06.353Z,6.63
2019-04-03T05:22:36.224Z,6.80
2019-04-03T05:25:06.202Z,6.33
2019-04-03T05:27:37.148Z,6.93
2019-04-03T05:30:07.110Z,7.97
2019-04-03T05:32:36.981Z,6.50
2019-04-03T05:35:06.989Z,6.60
2019-04-03T05:37:36.913Z,6.90
2019-04-03T05:40:07.172Z,7.00
2019-04-03T05:42:37.321Z,6.97
2019-04-03T05:45:07.267Z,6.80
2019-04-03T05:47:39.267Z,6.67
2019-04-03T05:50:08.805Z,7.30
2019-04-03T05:52:38.715Z,6.83
2019-04-03T05:55:09.695Z,7.50
2019-04-03T05:57:40.340Z,6.53
2019-04-03T06:00:10.445Z,7.30
2019-04-03T06:02:40.535Z,6.27
2019-04-03T06:05:12.726Z,5.93
2019-04-03T06:07:42.152Z,5.90
2019-04-03T06:10:12.575Z,6.27
2019-04-03T06:12:45.047Z,6.73
2019-04-03T06:15:14.371Z,6.47
2019-04-03T06:17:44.710Z,6.60
2019-04-03T06:20:14.652Z,6.57
2019-04-03T06:22:44.560Z,7.70
2019-04-03T06:25:15.631Z,6.60
2019-04-03T06:27:46.414Z,6.37
2019-04-03T06:30:17.849Z,6.27
2019-04-03T06:32:47.750Z,6.00
2019-04-03T06:35:17.679Z,6.27
2019-04-03T06:37:47.584Z,5.60
2019-04-03T06:40:17.510Z,5.57
2019-04-03T06:42:47.645Z,5.33
2019-04-03T06:45:17.984Z,5.70
2019-04-03T06:47:47.995Z,4.97
2019-04-03T06:50:18.016Z,5.40
2019-04-03T06:52:47.943Z,5.73
2019-04-03T06:55:18.061Z,5.43
2019-04-03T06:57:48.017Z,6.33
2019-04-03T07:00:17.971Z,5.63
2019-04-03T07:02:47.846Z,5.33
2019-04-03T07:05:17.688Z,5.63
2019-04-03T07:07:47.648Z,6.47
2019-04-03T07:10:25.352Z,5.90
2019-04-03T07:12:49.046Z,5.87
2019-04-03T07:15:18.957Z,6.43
2019-04-03T07:17:48.812Z,6.17
2019-04-03T07:20:20.657Z,5.87
2019-04-03T07:22:50.374Z,6.03
2019-04-03T07:25:20.299Z,5.97
2019-04-03T07:27:51.197Z,5.73
2019-04-03T07:30:21.751Z,5.87
2019-04-03T07:32:52.400Z,6.20
2019-04-03T07:35:22.397Z,6.00
2019-04-03T07:37:52.704Z,6.10
2019-04-03T07:40:22.780Z,5.90
2019-04-03T07:42:55.668Z,5.87
2019-04-03T07:45:24.189Z,5.63
2019-04-03T07:47:54.086Z,5.43
2019-04-03T07:50:24.027Z,5.97
2019-04-03T07:52:55.202Z,5.97
2019-04-03T07:55:27.995Z,5.60
2019-04-03T07:57:59.897Z,5.30
2019-04-03T08:00:31.144Z,5.10
2019-04-03T08:03:01.346Z,4.37
2019-04-03T08:05:31.696Z,5.10
2019-04-03T08:08:02.524Z,5.47
2019-04-03T08:10:32.978Z,5.27
2019-04-03T08:13:03.336Z,5.00
2019-04-03T08:15:34.454Z,4.67
2019-04-03T08:18:04.326Z,4.63
2019-04-03T08:20:34.334Z,5.20
2019-04-03T08:23:06.002Z,5.13
2019-04-03T08:25:36.363Z,5.53
2019-04-03T08:28:06.321Z,5.20
2019-04-03T08:30:38.536Z,4.53
2019-04-03T08:33:16.344Z,5.10
2019-04-03T08:35:39.580Z,4.30
2019-04-03T08:38:12.391Z,4.50
2019-04-03T08:40:41.419Z,4.33
2019-04-03T08:43:11.891Z,4.70
2019-04-03T08:45:41.793Z,4.57
2019-04-03T08:48:11.927Z,4.50
2019-04-03T08:50:41.926Z,4.63
2019-04-03T08:53:12.006Z,4.90
2019-04-03T08:55:42.192Z,4.87
2019-04-03T08:58:12.422Z,3.90
2019-04-03T09:00:42.448Z,3.97
2019-04-03T09:03:14.424Z,4.30
2019-04-03T09:05:52.029Z,4.40
2019-04-03T09:08:17.986Z,3.93
2019-04-03T09:10:49.966Z,3.97
2019-04-03T09:13:22.886Z,4.70
2019-04-03T09:15:51.553Z,4.70
2019-04-03T09:18:21.416Z,4.83
2019-04-03T09:20:51.367Z,5.00
2019-04-03T09:23:21.405Z,4.60
2019-04-03T09:25:52.744Z,4.90
2019-04-03T09:28:22.873Z,5.77
2019-04-03T09:30:54.118Z,5.20
2019-04-03T09:33:25.218Z,4.87
2019-04-03T09:35:58.770Z,3.27
2019-04-03T09:38:27.596Z,3.80
2019-04-03T09:40:57.598Z,3.50
2019-04-03T09:43:27.852Z,3.67
2019-04-03T09:46:00.292Z,3.33
2019-04-03T09:48:29.831Z,2.80
2019-04-03T09:50:59.891Z,3.20
2019-04-03T09:53:30.019Z,3.20
2019-04-03T09:56:00.314Z,3.00
2019-04-03T09:58:35.613Z,3.27
2019-04-03T10:01:06.153Z,3.00
2019-04-03T10:03:36.234Z,3.17
2019-04-03T10:06:06.062Z,3.53
2019-04-03T10:08:36.192Z,3.20
2019-04-03T10:11:06.148Z,3.47
2019-04-03T10:13:36.444Z,3.17
2019-04-03T10:16:06.575Z,3.33
2019-04-03T10:18:36.455Z,3.80
2019-04-03T10:21:06.630Z,3.33
2019-04-03T10:23:36.591Z,3.20
2019-04-03T10:26:08.670Z,3.00
2019-04-03T10:28:38.128Z,2.57
2019-04-03T10:31:08.009Z,2.97
2019-04-03T10:33:37.865Z,2.20
2019-04-03T10:36:11.433Z,1.97
2019-04-03T10:38:42.678Z,1.80
2019-04-03T10:41:12.919Z,1.90
2019-04-03T10:43:44.257Z,2.00
2019-04-03T10:46:14.272Z,1.60
2019-04-03T10:48:44.152Z,1.43
2019-04-03T10:51:14.215Z,1.80
2019-04-03T10:53:44.189Z,1.40
2019-04-03T10:56:15.050Z,1.60
2019-04-03T10:58:45.248Z,1.70
2019-04-03T11:01:15.493Z,1.60
2019-04-03T11:03:45.542Z,1.40
2019-04-03T11:06:15.700Z,1.40
2019-04-03T11:08:45.642Z,1.30
2019-04-03T11:11:15.954Z,1.30
2019-04-03T11:13:48.742Z,1.50
2019-04-03T11:16:18.557Z,1.40
2019-04-03T11:18:58.711Z,1.40
2019-04-03T11:21:20.092Z,1.50
2019-04-03T11:23:50.186Z,1.10
2019-04-03T11:28:51.679Z,1.10
2019-04-03T11:30:54.598Z,1.50
2019-04-03T11:31:27.127Z,1.20
2019-04-03T11:33:52.965Z,1.67
2019-04-03T11:36:25.970Z,1.30
2019-04-03T11:39:08.920Z,1.20
2019-04-03T11:41:27.239Z,1.17
2019-04-03T11:43:57.477Z,1.00
2019-04-03T11:46:27.659Z,1.03
2019-04-03T11:48:57.594Z,1.17
2019-04-03T11:51:29.563Z,1.10
2019-04-03T11:53:59.055Z,1.10
2019-04-03T11:56:28.854Z,1.00
2019-04-03T11:58:58.923Z,1.00
2019-04-03T12:01:28.865Z,1.10
2019-04-03T12:03:58.786Z,0.73
2019-04-03T12:06:28.973Z,0.93
2019-04-03T12:09:00.539Z,0.80
2019-04-03T12:11:32.275Z,0.87
2019-04-03T12:14:02.166Z,1.00
2019-04-03T12:16:32.159Z,0.90
2019-04-03T12:19:04.432Z,0.90
2019-04-03T12:21:33.589Z,0.80
2019-04-03T12:24:03.868Z,0.80
2019-04-03T12:26:33.884Z,0.90
2019-04-03T12:29:04.638Z,1.03
2019-04-03T12:31:36.792Z,0.80
2019-04-03T12:34:07.171Z,0.80
2019-04-03T12:36:37.514Z,0.80
2019-04-03T12:39:13.552Z,1.00
2019-04-03T12:41:43.773Z,0.90
2019-04-03T12:44:14.453Z,0.90
2019-04-03T12:46:45.673Z,1.00
2019-04-03T12:49:15.934Z,0.93
2019-04-03T12:51:45.870Z,1.10
2019-04-03T12:54:16.022Z,1.03
2019-04-03T12:56:45.994Z,0.90
2019-04-03T12:59:16.062Z,1.00
2019-04-03T13:01:48.731Z,0.83
2019-04-03T13:04:17.674Z,0.80
2019-04-03T13:06:47.720Z,1.03
2019-04-03T13:09:17.908Z,1.50
2019-04-03T13:11:49.932Z,1.70
2019-04-03T13:14:25.716Z,1.37
2019-04-03T13:16:50.905Z,1.03
2019-04-03T13:19:22.321Z,1.13
2019-04-03T13:21:52.368Z,1.20
2019-04-03T13:24:22.395Z,2.40
2019-04-03T13:26:52.408Z,2.30
2019-04-03T13:29:22.272Z,2.30
2019-04-03T13:31:52.101Z,2.40
2019-04-03T13:34:21.971Z,2.20
2019-04-03T13:36:52.454Z,1.93
2019-04-03T13:39:22.303Z,2.40
2019-04-03T13:41:52.210Z,1.80
2019-04-03T13:44:22.292Z,1.87
2019-04-03T13:46:53.342Z,1.80
2019-04-03T13:49:23.515Z,1.83
2019-04-03T13:51:56.299Z,1.50
2019-04-03T13:54:26.855Z,1.70
2019-04-03T13:56:57.151Z,1.80
2019-04-03T13:59:27.243Z,1.80
2019-04-03T14:01:57.450Z,2.00
2019-04-03T14:04:27.370Z,1.80
2019-04-03T14:06:57.205Z,1.80
2019-04-03T14:09:27.276Z,2.60
2019-04-03T14:12:00.342Z,1.80
2019-04-03T14:14:28.821Z,2.20
2019-04-03T14:16:59.276Z,1.77
2019-04-03T14:19:41.846Z,1.80
2019-04-03T14:22:01.223Z,1.93
2019-04-03T14:24:41.871Z,2.00
2019-04-03T14:27:03.394Z,1.90
2019-04-03T14:29:33.744Z,1.77
2019-04-03T14:32:04.616Z,1.60
2019-04-03T14:34:36.086Z,1.80
2019-04-03T14:37:06.273Z,1.70
2019-04-03T14:39:37.179Z,1.60
2019-04-03T14:42:08.235Z,1.70
2019-04-03T14:44:40.522Z,1.50
2019-04-03T14:47:10.012Z,1.70
2019-04-03T14:49:40.063Z,1.80
2019-04-03T14:52:09.990Z,1.73
2019-04-03T14:54:40.948Z,1.67
2019-04-03T14:57:20.224Z,2.10
2019-04-03T14:59:42.341Z,2.17
2019-04-03T15:02:12.695Z,2.50
2019-04-03T15:04:42.651Z,2.00
2019-04-03T15:07:13.202Z,2.33
2019-04-03T15:09:43.516Z,2.63
2019-04-03T15:12:13.535Z,2.90
2019-04-03T15:14:44.967Z,3.00
2019-04-03T15:17:18.257Z,2.87
2019-04-03T15:19:48.403Z,2.73
2019-04-03T15:22:21.598Z,2.97
2019-04-03T15:24:51.590Z,2.83
2019-04-03T15:27:21.728Z,2.67
2019-04-03T15:29:51.606Z,2.73
2019-04-03T15:32:21.866Z,2.57
2019-04-03T15:34:51.876Z,3.03
2019-04-03T15:37:21.900Z,3.73
2019-04-03T15:39:56.491Z,3.33
2019-04-03T15:42:24.333Z,3.33
2019-04-03T15:44:57.837Z,3.80
2019-04-03T15:47:37.090Z,4.07
2019-04-03T15:50:01.827Z,3.77
2019-04-03T15:52:31.781Z,3.43
2019-04-03T15:55:03.639Z,3.90
2019-04-03T15:57:33.255Z,3.60
2019-04-03T16:00:05.731Z,4.00
2019-04-03T16:02:35.929Z,3.90
2019-04-03T16:05:06.670Z,4.30
2019-04-03T16:07:40.452Z,4.73
2019-04-03T16:10:09.338Z,5.40
2019-04-03T16:12:42.768Z,5.37
2019-04-03T16:15:11.587Z,4.80
2019-04-03T16:17:42.101Z,5.13
2019-04-03T16:20:15.820Z,4.43
2019-04-03T16:22:44.403Z,5.03
2019-04-03T16:25:16.822Z,5.93
2019-04-03T16:27:46.538Z,5.17
2019-04-03T16:30:18.581Z,4.77
2019-04-03T16:32:48.350Z,4.20
2019-04-03T16:35:18.392Z,5.30
2019-04-03T16:37:50.423Z,4.90
2019-04-03T16:40:20.322Z,4.60
2019-04-03T16:42:53.023Z,5.30
2019-04-03T16:45:23.482Z,5.60
2019-04-03T16:47:54.261Z,6.20
2019-04-03T16:50:27.283Z,6.23
2019-04-03T16:52:56.499Z,6.97
2019-04-03T16:55:26.403Z,6.57
2019-04-03T16:57:56.582Z,6.30
2019-04-03T17:00:26.659Z,7.03
2019-04-03T17:02:57.066Z,7.43
2019-04-03T17:05:27.130Z,7.20
2019-04-03T17:07:57.168Z,6.67
2019-04-03T17:10:27.708Z,7.87
2019-04-03T17:12:57.631Z,7.23
2019-04-03T17:15:27.967Z,5.87
2019-04-03T17:17:58.923Z,6.20
2019-04-03T17:20:28.774Z,5.17
2019-04-03T17:22:58.650Z,5.67
2019-04-03T17:25:38.262Z,4.77
2019-04-03T17:28:05.805Z,5.83
2019-04-03T17:30:31.858Z,4.57
2019-04-03T17:33:02.813Z,5.27
2019-04-03T17:35:34.397Z,5.17
2019-04-03T17:38:04.613Z,5.30
2019-04-03T17:40:36.326Z,6.97
2019-04-03T17:43:06.211Z,6.60
2019-04-03T17:45:36.424Z,5.17
2019-04-03T17:48:06.284Z,6.23
2019-04-03T17:50:36.099Z,5.73
2019-04-03T17:53:06.649Z,5.07
2019-04-03T17:55:37.143Z,4.80
2019-04-03T17:58:07.051Z,2.60
2019-04-03T18:00:37.044Z,3.20
2019-04-03T18:03:06.985Z,3.23
2019-04-03T18:05:36.798Z,2.83
2019-04-03T18:08:06.726Z,2.90
2019-04-03T18:10:36.846Z,2.57
2019-04-03T18:13:07.753Z,3.07
2019-04-03T18:15:37.650Z,3.10
2019-04-03T18:18:07.458Z,2.70
2019-04-03T18:20:37.326Z,3.40
2019-04-03T18:23:07.305Z,3.30
2019-04-03T18:25:37.223Z,3.00
2019-04-03T18:28:07.156Z,2.97
2019-04-03T18:30:37.090Z,3.23
2019-04-03T18:33:06.953Z,3.27
2019-04-03T18:35:36.913Z,3.03
2019-04-03T18:38:08.128Z,3.10
2019-04-03T18:40:38.339Z,2.73
2019-04-03T18:43:08.161Z,2.87
2019-04-03T18:45:38.089Z,2.97
2019-04-03T18:48:08.013Z,2.40
2019-04-03T18:50:37.932Z,2.50
2019-04-03T18:53:09.561Z,2.80
2019-04-03T18:55:39.364Z,2.90
2019-04-03T18:58:09.297Z,2.87
2019-04-03T19:00:39.179Z,3.60
2019-04-03T19:03:09.006Z,4.23
2019-04-03T19:05:38.902Z,4.23
2019-04-03T19:08:13.423Z,4.57
2019-04-03T19:10:40.490Z,4.50
2019-04-03T19:13:13.726Z,4.83
2019-04-03T19:15:42.003Z,5.80
2019-04-03T19:18:19.390Z,6.83
2019-04-03T19:20:43.467Z,6.70
2019-04-03T19:23:13.535Z,6.17
2019-04-03T19:25:43.449Z,7.17
2019-04-03T19:28:13.353Z,8.73
2019-04-03T19:30:43.301Z,7.23
2019-04-03T19:33:14.046Z,8.27
2019-04-03T19:35:44.407Z,7.90
2019-04-03T19:38:14.382Z,7.87
2019-04-03T19:40:44.245Z,7.17
2019-04-03T19:43:14.960Z,7.47
2019-04-03T19:45:45.697Z,8.17
2019-04-03T19:48:15.673Z,7.73
2019-04-03T19:50:45.604Z,7.87
2019-04-03T19:53:15.476Z,7.70
2019-04-03T19:55:45.405Z,8.33
2019-04-03T19:58:15.353Z,8.97
2019-04-03T20:00:45.267Z,8.10
2019-04-03T20:03:15.105Z,8.90
2019-04-03T20:05:44.928Z,9.30
2019-04-03T20:08:18.111Z,8.50
2019-04-03T20:10:49.131Z,9.07
2019-04-03T20:13:19.735Z,8.13
2019-04-03T20:15:49.683Z,8.17
2019-04-03T20:18:19.567Z,8.17
2019-04-03T20:20:49.439Z,8.77
2019-04-03T20:23:19.384Z,8.87
2019-04-03T20:25:49.284Z,8.83
2019-04-03T20:28:23.329Z,7.77
2019-04-03T20:30:53.382Z,8.47
2019-04-03T20:33:23.137Z,9.60
2019-04-03T20:35:53.054Z,9.70
2019-04-03T20:38:22.971Z,9.77
2019-04-03T20:40:56.041Z,9.70
2019-04-03T20:43:26.025Z,9.57
2019-04-03T20:45:55.862Z,9.07
2019-04-03T20:48:28.285Z,10.50
2019-04-03T20:50:58.619Z,10.73
2019-04-03T20:53:28.540Z,9.97
2019-04-03T20:55:58.748Z,9.27
2019-04-03T20:58:31.239Z,9.00
2019-04-03T21:01:06.716Z,9.77
2019-04-03T21:03:32.835Z,10.83
2019-04-03T21:06:02.726Z,10.60
2019-04-03T21:08:32.638Z,10.13
2019-04-03T21:11:02.850Z,10.10
2019-04-03T21:13:35.046Z,9.90
2019-04-03T21:16:04.925Z,8.87
2019-04-03T21:18:34.746Z,9.10
2019-04-03T21:21:04.603Z,8.50
2019-04-03T21:23:34.614Z,9.20
2019-04-03T21:26:07.347Z,9.20
2019-04-03T21:28:40.923Z,7.57
2019-04-03T21:31:11.169Z,8.00
2019-04-03T21:33:45.388Z,6.97
2019-04-03T21:36:15.161Z,6.60
2019-04-03T21:38:47.431Z,6.30
2019-04-03T21:41:16.627Z,6.57
2019-04-03T21:43:48.062Z,5.83
2019-04-03T21:46:19.031Z,7.30
2019-04-03T21:48:48.868Z,7.43
2019-04-03T21:51:28.490Z,8.10
2019-04-03T21:53:59.952Z,8.50
2019-04-03T21:56:31.024Z,8.53
2019-04-03T21:59:01.419Z,8.13
2019-04-03T22:01:31.405Z,7.97
2019-04-03T22:04:01.274Z,7.47
2019-04-03T22:06:31.174Z,7.37
2019-04-03T22:09:00.963Z,8.00
2019-04-03T22:11:35.043Z,7.17
2019-04-03T22:14:04.071Z,6.20
2019-04-03T22:16:33.982Z,6.13
2019-04-03T22:19:03.829Z,5.60
2019-04-03T22:21:33.671Z,4.97
2019-04-03T22:24:06.571Z,4.93
2019-04-03T22:26:35.098Z,5.07
2019-04-03T22:29:06.470Z,4.70
2019-04-03T22:31:36.343Z,4.77
2019-04-03T22:34:06.263Z,5.60
2019-04-03T22:36:36.185Z,4.20
2019-04-03T22:39:08.030Z,4.37
2019-04-03T22:41:38.526Z,4.27
2019-04-03T22:44:08.282Z,4.67
2019-04-03T22:46:38.100Z,4.27
2019-04-03T22:49:08.016Z,4.80
2019-04-03T22:51:38.220Z,4.67
2019-04-03T22:54:08.083Z,4.40
2019-04-03T22:56:38.030Z,4.17
2019-04-03T22:59:07.793Z,4.20
2019-04-03T23:01:37.704Z,4.67
2019-04-03T23:04:07.481Z,4.77
2019-04-03T23:06:40.447Z,4.27
2019-04-03T23:09:10.373Z,3.73
2019-04-03T23:11:40.328Z,4.03
2019-04-03T23:14:10.111Z,4.47
2019-04-03T23:16:42.696Z,5.43
2019-04-03T23:19:12.621Z,4.90
2019-04-03T23:21:42.414Z,5.33
2019-04-03T23:24:12.373Z,5.03
2019-04-03T23:26:43.541Z,5.47
2019-04-03T23:29:14.573Z,5.50
2019-04-03T23:31:44.944Z,5.70
2019-04-03T23:34:18.752Z,6.60
2019-04-03T23:36:47.945Z,6.27
2019-04-03T23:39:17.732Z,6.80
2019-04-03T23:41:47.668Z,7.13
2019-04-03T23:44:18.897Z,7.63
2019-04-03T23:46:48.726Z,7.27
2019-04-03T23:49:20.207Z,7.33
2019-04-03T23:51:50.001Z,7.67
2019-04-03T23:54:19.884Z,8.43
2019-04-03T23:56:49.634Z,7.47
2019-04-03T23:59:27.194Z,8.37
